• Join FlightAware (Why Join?)
  • Login
  • US Flag 
04:44PM EDT


 

Airport Tracker/Info


-or-


 

Live Flight TrackerFlight Track Log ✈ EJM685 ✈ 16-Apr-2014 ✈ KTEB - MYNN / NAS

Flight Track Log - Related Links

Times and Time Zones

All times are in EDT time to prevent confusion due to time zone crossing. See the EJM685 flight status page for this flight to view local times or setup timezone preferences in your user account.

Time Position Orientation Groundspeed Altitude Reporting Facility
EDT Latitude Longitude Course Direction KTS MPH feet Rate Location/Type
05:07PM 40.8833 -74.0500 323° Northwest 176 203 1,800  Level New York TRACON
05:08PM 40.9167 -74.0833 323° Northwest 203 234 2,100 900 Climbing New York TRACON
05:09PM 40.8833 -74.1500 237° Southwest 253 291 3,700 1,800 Climbing New York TRACON
05:10PM 40.8167 -74.2000 210° Southwest 270 311 5,800 2,520 Climbing New York TRACON
05:12PM 40.6817 -74.2328 190° South 285 328 11,200 2,760 Climbing New York Center
05:13PM 40.5739 -74.2136 172° South 326 375 14,100 1,860 Climbing New York Center
05:14PM 40.4742 -74.2006 174° South 361 415 15,000 480 Climbing New York Center
05:15PM 40.3828 -74.1931 176° South 367 422 15,100  Climbing New York Center
05:16PM 40.2706 -74.1822 176° South 367 422 15,100  Level New York Center
05:17PM 40.1686 -74.1744 177° South 367 422 15,100 240 Level New York Center
05:18PM 40.0872 -74.1108 149° Southeast 361 415 15,600 900 Climbing New York Center
05:19PM 40.0389 -73.9783 115° Southeast 355 409 17,000 1,620 Climbing New York Center
05:20PM 40.0031 -73.8358 108° East 374 430 18,900 2,160 Climbing New York Center
05:21PM 40.0092 -73.6733 87° East 409 471 21,400 1,800 Climbing New York Center
05:22PM 39.9964 -73.5103 96° East 422 486 22,500 1,800 Climbing New York Center
05:24PM 39.7978 -73.3539 149° Southeast 389 448 26,800 2,220 Climbing New York Center
05:25PM 39.6825 -73.2928 158° South 416 479 29,200 2,160 Climbing New York Center
05:26PM 39.5647 -73.2428 162° South 440 506 31,200 1,680 Climbing New York Center
05:27PM 39.4425 -73.2089 168° South 452 520 32,600 900 Climbing New York Center
05:28PM 39.3139 -73.1697 167° South 462 532 33,000 300 Climbing New York Center
05:29PM 39.1917 -73.1333 167° South 462 532 33,200 1,260 Climbing New York Center
05:30PM 39.0675 -73.0944 166° South 462 532 35,600 2,400 Climbing New York Center
05:31PM 38.9514 -73.0533 165° South 457 526 38,100 2,400 Climbing New York Center
05:32PM 38.8353 -73.0175 166° South 441 507 40,500 1,740 Climbing New York Center
05:33PM 38.7214 -72.9794 165° South 431 496 41,600 900 Climbing New York Center
05:34PM 38.6008 -72.9517 170° South 431 496 42,400 600 Climbing New York Center
05:35PM 38.4828 -72.9136 166° South 431 496 42,900 300 Climbing New York Center
05:36PM 38.3522 -72.8753 167° South 439 505 43,000  Climbing New York Center
05:37PM 38.2339 -72.8375 166° South 439 505 43,000  Level New York Center
05:38PM 38.1094 -72.7994 166° South 445 512 43,000  Level New York Center
05:39PM 37.9869 -72.7619 166° South 450 518 43,000  Level New York Center
05:40PM 37.8647 -72.7242 166° South 450 518 43,000  Level New York Center
05:41PM 37.7400 -72.6919 168° South 450 518 43,000 120 Level New York Center
05:42PM 37.6197 -72.6522 165° South 450 518 43,300 780 Climbing New York Center
05:43PM 37.5222 -72.6183 165° South 437 503 44,600 1,200 Climbing New York Center
05:44PM 37.4017 -72.5839 167° South 432 497 45,800 840 Climbing New York Center
05:45PM 37.2897 -72.5497 166° South 427 491 46,300 480 Climbing New York Center
05:46PM 37.1692 -72.5131 166° South 433 498 46,800 300 Climbing New York Center
05:47PM 37.0486 -72.4789 167° South 433 498 47,000 60 Climbing New York Center
05:48PM 36.9325 -72.4425 166° South 439 505 47,000  Level New York Center
05:49PM 36.8078 -72.4086 168° South 450 518 47,000  Level New York Center
05:50PM 36.6828 -72.3928 174° South 450 518 47,000 -60 Level New York Center
05:51PM 36.5658 -72.3953 181° South 438 504 46,900  Descending New York Center
05:52PM 36.4469 -72.3953 180° South 438 504 47,000  Climbing New York Center
05:53PM 36.3197 -72.3978 181° South 445 512 46,900  Descending New York Center
05:54PM 36.2008 -72.3978 180° South 439 505 47,000  Climbing New York Center
05:55PM 36.0819 -72.4003 181° South 434 499 47,000  Level New York Center
05:56PM 35.9669 -72.4006 180° South 435 501 47,000  Level New York Center
05:57PM 35.8439 -72.4028 181° South 435 501 47,000  Level New York Center
05:58PM 35.7231 -72.4028 180° South 435 501 47,000  Level New York Center
05:59PM 35.6019 -72.4081 182° South 443 510 47,000  Level New York Center
06:00PM 35.4892 -72.4056 179° South 430 495 47,000  Level New York Center
06:01PM 35.3767 -72.4031 179° South 414 476 47,000  Level New York Center
06:02PM 35.2514 -72.4081 182° South 423 487 47,000  Level New York Center
06:03PM 35.1389 -72.4058 179° South 417 480 47,000 -60 Level New York Center
06:04PM 35.0153 -72.4311 190° South 432 497 46,900 -60 Descending New York Center
06:05PM 34.9167 -72.4819 203° Southwest 412 474 46,900  Level New York Center
06:06PM 34.8156 -72.5406 205° Southwest 402 463 46,900  Level New York Center
06:07PM 34.7144 -72.5939 203° Southwest 407 468 47,000  Climbing New York Center
06:08PM 34.6136 -72.6494 204° Southwest 406 467 47,000  Level New York Center
06:09PM 34.5103 -72.7075 205° Southwest 406 467 47,000  Level New York Center
06:10PM 34.4050 -72.7653 204° Southwest 406 467 47,000  Level New York Center
06:11PM 34.3061 -72.8181 204° Southwest 400 460 47,000  Level New York Center
06:12PM 34.2008 -72.8756 204° Southwest 404 465 47,000  Level New York Center
06:13PM 34.0978 -72.9281 203° Southwest 404 465 47,000  Level New York Center
06:23PM 33.2500 -73.4000 212° Southwest 421 484 47,000  Level New York Oceanic (ODAPS)
06:43PM 33.2500 -73.4000 203° Southwest 422 486 47,000  Level New York Oceanic (ODAPS)
07:09PM 28.2594 -75.8753 205° Southwest 477 549 47,000  Level Miami Center
07:10PM 27.7205 -76.0431 205° Southwest 422 486 47,000  Level FlightAware Transoceanic
07:10PM 28.1406 -75.8953 188° South 430 495 47,000  Level Miami Center
07:11PM 27.6076 -76.1027 205° Southwest 422 486 47,000  Level FlightAware Transoceanic
07:11PM 28.0261 -75.9317 196° South 427 491 47,000  Level Miami Center
07:12PM 27.4947 -76.1622 205° Southwest 422 486 47,000  Level FlightAware Transoceanic
07:12PM 27.9303 -75.9536 191° South 427 491 47,000  Level Miami Center
07:13PM 27.3817 -76.2216 205° Southwest 422 486 47,000  Level FlightAware Transoceanic
07:13PM 27.8050 -75.9944 196° South 427 491 47,000  Level Miami Center
07:14PM 27.2688 -76.2808 205° Southwest 422 486 47,000  Level FlightAware Transoceanic
07:14PM 27.6989 -76.0539 206° Southwest 427 491 47,000  Level Miami Center
07:15PM 27.5969 -76.1250 212° Southwest 432 497 47,000  Level Miami Center
07:16PM 27.4950 -76.1958 212° Southwest 432 497 47,000 -600 Level Miami Center
07:17PM 27.3992 -76.2667 213° Southwest 432 497 45,800 -1,500 Descending Miami Center
07:18PM 27.3014 -76.3372 213° Southwest 427 491 44,000 -1,800 Descending Miami Center
07:19PM 27.2056 -76.4100 214° Southwest 427 491 42,200 -1,920 Descending Miami Center
07:20PM 27.1117 -76.4828 215° Southwest 421 484 40,300 -1,860 Descending Miami Center
07:21PM 27.0158 -76.5439 210° Southwest 415 478 38,500 -1,800 Descending Miami Center
07:22PM 26.9178 -76.6094 211° Southwest 409 471 36,700 -1,920 Descending Miami Center
07:23PM 26.8197 -76.6794 213° Southwest 415 478 34,700 -1,980 Descending Miami Center
07:24PM 26.7194 -76.7539 214° Southwest 422 486 32,800 -1,980 Descending Miami Center
07:25PM 26.6214 -76.8400 218° Southwest 435 501 30,800 -1,980 Descending Miami Center
07:26PM 26.5147 -76.9028 208° Southwest 440 506 28,900 -1,980 Descending Miami Center
07:27PM 26.4167 -76.9722 212° Southwest 435 501 26,900 -1,980 Descending Miami Center
07:28PM 26.3183 -77.0419 212° Southwest 430 495 25,000 -1,860 Descending Miami Center
07:29PM 26.2219 -77.1136 214° Southwest 430 495 23,200 -1,800 Descending Miami Center
07:30PM 26.1258 -77.1781 211° Southwest 423 487 21,400 -1,800 Descending Miami Center
07:31PM 26.0358 -77.2450 214° Southwest 412 474 19,600 -1,800 Descending Miami Center
07:32PM 25.9458 -77.3072 212° Southwest 396 456 17,800 -1,740 Descending Miami Center
07:33PM 25.8578 -77.3714 213° Southwest 391 450 16,200 -1,620 Descending Miami Center
07:34PM 25.7739 -77.4289 212° Southwest 379 436 14,600 -1,560 Descending Miami Center
07:35PM 25.6903 -77.4836 211° Southwest 338 389 13,100 -840 Descending Miami Center
07:36PM 25.6214 -77.4811 178° South 307 353 13,000 -60 Descending Miami Center
07:37PM 25.5294 -77.4783 178° South 301 346 13,000  Level Miami Center
07:39PM 25.2964 -77.4667 180° South  Level FlightAware Approximate
07:46PM 25.0333 -77.4500 170° South  Level FlightAware Approximate
07:47PM 25.0390 -77.4662 170° South  Level Estimated
07:48PM 25.0390 -77.4662 170° South  Level Estimated
07:49PM 25.0390 -77.4662 170° South  Level Estimated
07:50PM 25.0390 -77.4662 170° South  Level Estimated
07:51PM 25.0390 -77.4662 170° South  Level Estimated
07:52PM 25.0390 -77.4662 170° South  Level Estimated
07:53PM 25.0390 -77.4662 170° South  Level Estimated
07:54PM 25.0390 -77.4662 170° South  Level Estimated
07:55PM 25.0390 -77.4662 170° South  Level Estimated
07:56PM 25.0390 -77.4662 170° South  Level Estimated